Time;durP1;ratioP1;P1;durP2;ratioP2;P2;SDS_P1;SDS_P2;PMS_P1;PMS_P2;Temp;Humidity;BMP_temperature;BMP_pressure;BME280_temperature;BME280_humidity;BME280_pressure;Samples;Min_cycle;Max_cycle;Signal;HPM_P1;HPM_P2
2022/02/23 00:01:05;;;;;;;25.05;4.07;;;;;;;5.51;80.64;102318.19;5055901;28;20035;-74
2022/02/23 00:03:30;;;;;;;24.40;3.47;;;;;;;5.48;80.69;102325.34;5073622;28;20033;-74
2022/02/23 00:05:56;;;;;;;20.52;3.10;;;;;;;5.47;80.56;102315.69;5074042;28;20032;-73
2022/02/23 00:08:21;;;;;;;21.58;2.95;;;;;;;5.50;80.01;102317.34;5073933;28;20522;-74
2022/02/23 00:10:47;;;;;;;18.20;2.83;;;;;;;5.47;80.14;102322.78;5073112;28;20033;-74
2022/02/23 00:13:12;;;;;;;21.55;3.35;;;;;;;5.45;80.23;102325.50;5055483;28;20048;-73
2022/02/23 00:15:37;;;;;;;19.35;2.95;;;;;;;5.42;80.15;102320.34;5073271;28;20032;-75
2022/02/23 00:18:03;;;;;;;18.25;2.92;;;;;;;5.49;79.93;102336.75;5073550;28;20399;-75
2022/02/23 00:20:28;;;;;;;22.90;4.20;;;;;;;5.55;79.95;102333.84;5073221;28;20074;-75
2022/02/23 00:22:54;;;;;;;29.15;3.47;;;;;;;5.50;80.20;102338.47;5073949;28;20047;-75
2022/02/23 00:25:19;;;;;;;28.00;4.82;;;;;;;5.45;80.47;102349.25;5055703;28;20392;-75
2022/02/23 00:27:45;;;;;;;18.63;3.78;;;;;;;5.48;80.63;102350.91;5072866;28;20032;-75
2022/02/23 00:30:10;;;;;;;29.15;4.40;;;;;;;5.47;80.65;102354.47;5055372;28;20438;-75
2022/02/23 00:32:36;;;;;;;23.17;4.03;;;;;;;5.40;80.85;102364.41;5072548;28;20032;-75
2022/02/23 00:35:02;;;;;;;25.90;4.22;;;;;;;5.44;80.38;102359.88;5073423;28;20028;-74
2022/02/23 00:37:28;;;;;;;22.20;3.45;;;;;;;5.44;80.36;102360.72;5073122;28;20501;-75
2022/02/23 00:39:53;;;;;;;18.15;3.72;;;;;;;5.38;80.48;102368.06;5072804;28;20033;-75
2022/02/23 00:42:19;;;;;;;22.13;3.45;;;;;;;5.34;80.40;102355.94;5073224;28;20033;-75
2022/02/23 00:44:44;;;;;;;21.20;2.92;;;;;;;5.35;80.04;102368.22;5072526;28;20469;-75
2022/02/23 00:47:10;;;;;;;20.33;3.60;;;;;;;5.35;79.51;102363.78;5072884;28;20123;-75
2022/02/23 00:49:36;;;;;;;20.65;3.53;;;;;;;5.33;79.92;102357.72;5072594;28;20028;-75
2022/02/23 00:52:05;;;;;;;23.00;3.50;;;;;;;5.35;79.34;102355.00;5073196;28;20040;-75
2022/02/23 00:54:31;;;;;;;18.45;3.28;;;;;;;5.34;79.42;102351.50;5072442;28;20479;-75
2022/02/23 00:56:56;;;;;;;17.42;2.80;;;;;;;5.33;79.92;102360.38;5072653;28;20064;-74
2022/02/23 00:59:22;;;;;;;19.73;2.80;;;;;;;5.35;79.91;102355.84;5072713;28;20060;-74
2022/02/23 01:01:47;;;;;;;16.90;3.25;;;;;;;5.32;79.97;102361.28;5071981;28;20028;-75
2022/02/23 01:04:12;;;;;;;14.85;3.00;;;;;;;5.26;80.59;102367.69;5072846;28;20036;-75
2022/02/23 01:06:38;;;;;;;20.27;3.20;;;;;;;5.18;81.03;102359.25;5072149;28;20033;-75
2022/02/23 01:09:03;;;;;;;21.75;4.15;;;;;;;5.14;81.60;102370.00;5072803;28;20036;-75
2022/02/23 01:11:29;;;;;;;19.50;3.42;;;;;;;5.09;81.87;102384.25;5072661;28;20032;-75
2022/02/23 01:13:54;;;;;;;21.60;3.10;;;;;;;5.15;81.95;102382.25;5053799;28;20063;-75
2022/02/23 01:16:20;;;;;;;25.27;3.60;;;;;;;5.14;82.12;102385.84;5072662;28;20025;-74
2022/02/23 01:18:46;;;;;;;21.85;3.35;;;;;;;5.12;82.71;102384.13;5071698;28;20108;-75
2022/02/23 01:21:11;;;;;;;22.23;3.72;;;;;;;5.11;83.16;102384.19;5072509;28;20098;-74
2022/02/23 01:23:38;;;;;;;27.60;4.47;;;;;;;5.11;83.17;102381.53;5071313;28;20113;-76
2022/02/23 01:26:04;;;;;;;22.33;3.20;;;;;;;5.05;83.52;102397.63;5072407;28;20115;-74
2022/02/23 01:28:30;;;;;;;28.23;4.32;;;;;;;5.02;83.80;102401.25;5072320;28;20028;-75
2022/02/23 01:30:57;;;;;;;25.55;3.22;;;;;;;4.98;84.23;102401.47;5071489;28;20028;-75
2022/02/23 01:33:22;;;;;;;25.25;3.50;;;;;;;4.98;84.52;102406.72;5072123;28;20414;-75
2022/02/23 01:35:48;;;;;;;26.92;3.53;;;;;;;4.98;84.54;102404.09;5071725;28;20031;-75
2022/02/23 01:38:13;;;;;;;19.10;2.97;;;;;;;4.98;84.64;102409.38;5072304;28;20423;-75
2022/02/23 01:40:39;;;;;;;20.27;3.60;;;;;;;5.00;84.43;102411.03;5071420;28;20465;-75
2022/02/23 01:43:05;;;;;;;17.90;3.47;;;;;;;5.02;84.44;102414.44;5072337;28;20426;-75
2022/02/23 01:45:30;;;;;;;16.33;3.28;;;;;;;5.04;84.10;102414.38;5072230;28;20071;-75
2022/02/23 01:47:55;;;;;;;15.23;3.08;;;;;;;4.96;84.12;102417.34;5071630;28;20071;-75
2022/02/23 01:50:22;;;;;;;25.30;3.67;;;;;;;4.96;84.32;102422.63;5072160;28;20040;-75
2022/02/23 01:52:47;;;;;;;23.38;3.20;;;;;;;4.94;84.33;102419.19;5071309;28;20041;-75
2022/02/23 01:55:13;;;;;;;21.98;3.97;;;;;;;4.91;84.43;102428.09;5072239;28;20374;-75
2022/02/23 01:57:39;;;;;;;20.00;4.15;;;;;;;4.94;84.43;102427.97;5053813;28;20115;-75
2022/02/23 02:00:08;;;;;;;22.58;3.88;;;;;;;4.99;84.22;102424.28;5071549;28;20124;-75
2022/02/23 02:02:34;;;;;;;20.88;2.97;;;;;;;4.95;84.48;102434.09;5071995;28;20043;-75
2022/02/23 02:05:01;;;;;;;17.80;3.58;;;;;;;4.94;84.62;102442.91;5071365;28;20043;-75
2022/02/23 02:07:26;;;;;;;18.67;2.97;;;;;;;5.01;84.64;102447.03;5071828;28;20081;-75
2022/02/23 02:09:51;;;;;;;25.30;3.58;;;;;;;4.96;84.53;102449.00;5071503;28;20469;-75
2022/02/23 02:12:17;;;;;;;20.13;3.30;;;;;;;4.91;85.04;102449.19;5071758;28;20040;-75
2022/02/23 02:14:42;;;;;;;21.80;2.88;;;;;;;4.93;85.56;102452.63;5053408;28;20448;-75
2022/02/23 02:17:07;;;;;;;24.95;3.08;;;;;;;4.97;85.49;102460.41;5071444;28;20479;-75
2022/02/23 02:19:33;;;;;;;19.67;3.38;;;;;;;4.97;85.60;102450.72;5071648;28;20036;-75
2022/02/23 02:22:01;;;;;;;24.52;3.58;;;;;;;4.96;85.80;102446.38;5071400;28;20453;-76
2022/02/23 02:24:29;;;;;;;18.38;3.97;;;;;;;4.89;85.90;102447.53;5071628;28;20037;-76
2022/02/23 02:26:56;;;;;;;20.10;3.25;;;;;;;4.86;85.95;102452.94;5070725;28;20032;-75
2022/02/23 02:29:22;;;;;;;22.83;4.60;;;;;;;4.83;86.07;102445.16;5071539;28;20033;-75
2022/02/23 02:31:48;;;;;;;17.33;3.10;;;;;;;4.82;86.54;102448.69;5070804;28;20059;-76
2022/02/23 02:34:14;;;;;;;20.80;3.42;;;;;;;4.75;86.68;102450.75;5072069;28;20528;-75
2022/02/23 02:36:40;;;;;;;21.58;2.70;;;;;;;4.66;86.61;102449.31;5057654;28;20410;-76
2022/02/23 02:39:07;;;;;;;24.95;3.58;;;;;;;4.62;87.15;102449.50;5057094;28;20028;-75
2022/02/23 02:41:36;;;;;;;20.67;3.08;;;;;;;4.59;87.46;102440.78;5057405;28;20047;-76
2022/02/23 02:44:02;;;;;;;18.33;3.75;;;;;;;4.66;87.30;102453.72;5074755;28;20064;-76
2022/02/23 02:46:27;;;;;;;31.83;3.85;;;;;;;4.60;86.79;102452.22;5057176;28;20437;-76
2022/02/23 02:48:53;;;;;;;24.58;3.53;;;;;;;4.59;87.17;102453.13;5074671;28;20059;-75
2022/02/23 02:51:19;;;;;;;24.73;3.28;;;;;;;4.57;87.19;102458.47;5075310;28;20040;-76
2022/02/23 02:53:45;;;;;;;17.73;2.80;;;;;;;4.59;87.07;102466.31;5075216;28;20064;-76
2022/02/23 02:56:10;;;;;;;18.65;3.03;;;;;;;4.58;87.03;102461.94;5074545;28;20060;-76
2022/02/23 02:58:35;;;;;;;15.50;2.78;;;;;;;4.59;87.07;102461.88;5075161;28;20365;-76
2022/02/23 03:01:01;;;;;;;24.33;3.92;;;;;;;4.61;87.05;102467.09;5074298;28;20114;-76
2022/02/23 03:03:27;;;;;;;24.15;3.38;;;;;;;4.65;87.05;102459.94;5074912;28;20115;-75
2022/02/23 03:05:52;;;;;;;26.67;3.25;;;;;;;4.61;86.91;102467.09;5074492;28;20035;-76
2022/02/23 03:08:18;;;;;;;17.60;2.92;;;;;;;4.58;87.29;102477.75;5075075;28;20506;-76
2022/02/23 03:10:43;;;;;;;19.17;2.70;;;;;;;4.49;87.34;102476.34;5075463;28;20071;-76
2022/02/23 03:13:10;;;;;;;27.20;3.15;;;;;;;4.47;87.95;102480.81;5074352;28;20385;-76
2022/02/23 03:15:36;;;;;;;19.00;3.63;;;;;;;4.44;88.14;102478.31;5074923;28;20028;-76
2022/02/23 03:18:02;;;;;;;19.55;3.60;;;;;;;4.38;88.23;102482.03;5075163;28;20032;-76
2022/02/23 03:20:27;;;;;;;25.70;2.95;;;;;;;4.39;88.50;102483.75;5057898;28;20346;-76
2022/02/23 03:22:53;;;;;;;20.02;3.75;;;;;;;4.41;88.54;102484.53;5056435;28;20043;-76
2022/02/23 03:25:18;;;;;;;20.88;3.05;;;;;;;4.46;88.36;102500.19;5074590;28;20044;-75
2022/02/23 03:27:44;;;;;;;20.10;3.15;;;;;;;4.40;88.00;102496.03;5074654;28;20040;-75
2022/02/23 03:30:09;;;;;;;26.25;3.72;;;;;;;4.32;88.19;102491.97;5073851;28;20039;-75
2022/02/23 03:32:35;;;;;;;22.15;3.55;;;;;;;4.26;88.89;102489.56;5074532;28;20029;-75
2022/02/23 03:35:00;;;;;;;17.85;3.03;;;;;;;4.20;89.04;102498.53;5056061;28;20028;-75
2022/02/23 03:37:25;;;;;;;25.08;3.33;;;;;;;4.11;89.23;102491.84;5074430;28;20032;-75
2022/02/23 03:39:51;;;;;;;24.48;3.47;;;;;;;4.04;89.62;102487.72;5074152;28;20033;-75
2022/02/23 03:42:17;;;;;;;25.65;3.08;;;;;;;4.02;89.97;102486.91;5073734;28;20028;-75
2022/02/23 03:44:43;;;;;;;19.85;3.03;;;;;;;4.02;90.56;102492.19;5074128;28;20043;-75
2022/02/23 03:47:08;;;;;;;24.23;3.28;;;;;;;4.02;90.73;102500.94;5073241;28;20032;-74
2022/02/23 03:49:34;;;;;;;14.52;2.75;;;;;;;4.05;90.71;102500.81;5056347;28;20419;-75
2022/02/23 03:52:00;;;;;;;22.17;3.70;;;;;;;4.06;90.47;102501.66;5073812;28;20040;-75
2022/02/23 03:54:25;;;;;;;14.27;2.72;;;;;;;4.11;90.60;102493.63;5074043;28;20028;-75
2022/02/23 03:56:51;;;;;;;16.75;3.03;;;;;;;4.10;90.32;102511.19;5073984;28;20127;-75
2022/02/23 03:59:16;;;;;;;22.30;3.00;;;;;;;4.05;90.16;102507.88;5073441;28;20040;-75
2022/02/23 04:01:45;;;;;;;23.70;3.75;;;;;;;4.03;90.33;102505.28;5073793;28;20044;-75
2022/02/23 04:04:11;;;;;;;21.00;3.40;;;;;;;3.98;90.57;102509.00;5073490;28;20024;-75
2022/02/23 04:06:37;;;;;;;26.48;3.95;;;;;;;3.92;90.58;102503.97;5073824;28;20101;-75
2022/02/23 04:09:06;;;;;;;24.60;4.78;;;;;;;3.88;90.85;102506.72;5073315;28;20035;-75
2022/02/23 04:11:32;;;;;;;26.17;3.78;;;;;;;3.87;90.78;102512.88;5073823;28;20035;-75
2022/02/23 04:13:58;;;;;;;18.98;3.25;;;;;;;3.83;91.06;102513.03;5073153;28;20052;-75
2022/02/23 04:16:23;;;;;;;21.73;3.38;;;;;;;3.82;91.40;102514.84;5073708;28;20043;-75
2022/02/23 04:18:49;;;;;;;21.67;3.55;;;;;;;3.76;91.24;102524.69;5073640;28;20028;-74
2022/02/23 04:21:15;;;;;;;23.02;3.50;;;;;;;3.75;92.15;102523.84;5073305;28;20064;-74
2022/02/23 04:23:40;;;;;;;23.55;3.13;;;;;;;3.70;92.64;102524.03;5073591;28;20445;-74
2022/02/23 04:26:05;;;;;;;16.98;3.00;;;;;;;3.68;92.88;102525.81;5072919;28;20035;-75
2022/02/23 04:28:31;;;;;;;25.08;3.55;;;;;;;3.71;93.29;102525.72;5073401;28;20040;-75
2022/02/23 04:30:58;;;;;;;27.80;3.20;;;;;;;3.81;94.24;102531.53;5073260;28;20043;-74
2022/02/23 04:33:23;;;;;;;22.75;3.28;;;;;;;3.80;94.23;102534.22;5073033;28;20047;-75
2022/02/23 04:35:49;;;;;;;30.77;4.15;;;;;;;3.80;93.74;102527.16;5055347;28;20459;-75
2022/02/23 04:38:15;;;;;;;26.20;3.15;;;;;;;3.78;93.83;102528.16;5072793;28;20036;-75
2022/02/23 04:40:43;;;;;;;25.00;4.07;;;;;;;3.72;93.88;102523.97;5073398;28;20039;-75
2022/02/23 04:43:10;;;;;;;27.77;4.55;;;;;;;3.66;93.93;102530.28;5072338;28;20116;-75
2022/02/23 04:45:35;;;;;;;18.25;3.25;;;;;;;3.65;94.57;102536.47;5072981;28;20033;-75
2022/02/23 04:48:01;;;;;;;21.33;4.00;;;;;;;3.61;94.75;102537.47;5072698;28;20411;-76
2022/02/23 04:50:26;;;;;;;22.80;3.30;;;;;;;3.52;94.63;102536.03;5072554;28;20036;-76
2022/02/23 04:52:52;;;;;;;25.33;4.00;;;;;;;3.50;94.88;102523.84;5072638;28;20085;-75
2022/02/23 04:55:17;;;;;;;21.60;3.60;;;;;;;3.51;95.33;102536.94;5072670;28;20441;-75
2022/02/23 04:57:43;;;;;;;25.02;3.10;;;;;;;3.47;95.58;102534.47;5072000;28;20485;-75
2022/02/23 05:00:09;;;;;;;26.00;3.53;;;;;;;3.41;95.76;102535.53;5054218;28;20037;-75
2022/02/23 05:02:35;;;;;;;21.15;4.25;;;;;;;3.36;96.16;102529.56;5072911;28;20461;-75
2022/02/23 05:05:00;;;;;;;19.77;4.10;;;;;;;3.39;97.07;102534.72;5072676;28;20035;-75
2022/02/23 05:07:26;;;;;;;26.65;3.53;;;;;;;3.40;96.99;102533.78;5072418;28;20032;-75
2022/02/23 05:09:52;;;;;;;17.60;3.03;;;;;;;3.45;96.99;102538.91;5072406;28;20079;-75
2022/02/23 05:12:17;;;;;;;20.25;3.55;;;;;;;3.49;97.23;102544.03;5054238;28;20392;-75
2022/02/23 05:14:43;;;;;;;17.65;3.90;;;;;;;3.47;96.90;102540.59;5072532;28;20056;-75
2022/02/23 05:17:08;;;;;;;23.48;3.72;;;;;;;3.43;96.72;102540.75;5071833;28;20051;-75
2022/02/23 05:19:34;;;;;;;23.77;4.35;;;;;;;3.41;97.16;102550.47;5072817;28;20032;-75
2022/02/23 05:22:01;;;;;;;22.88;4.32;;;;;;;3.39;97.29;102545.25;5072371;28;20139;-75
2022/02/23 05:24:28;;;;;;;23.98;4.55;;;;;;;3.44;97.53;102553.00;5071753;28;20040;-75
2022/02/23 05:26:55;;;;;;;26.15;4.65;;;;;;;3.46;97.45;102559.94;5072294;28;20111;-76
2022/02/23 05:29:21;;;;;;;22.90;4.60;;;;;;;3.42;97.00;102558.31;5071533;28;20024;-75
2022/02/23 05:31:46;;;;;;;27.13;4.22;;;;;;;3.44;97.16;102556.47;5072285;28;20465;-75
2022/02/23 05:34:12;;;;;;;23.40;4.00;;;;;;;3.48;97.71;102554.63;5071866;28;20473;-75
2022/02/23 05:36:37;;;;;;;23.65;3.92;;;;;;;3.52;98.10;102559.72;5072623;28;20059;-75
2022/02/23 05:39:03;;;;;;;28.35;4.22;;;;;;;3.51;97.95;102554.50;5072367;28;20190;-75
2022/02/23 05:41:28;;;;;;;31.52;4.78;;;;;;;3.47;98.20;102559.00;5071531;28;20495;-75
2022/02/23 05:43:54;;;;;;;21.00;3.28;;;;;;;3.44;97.93;102553.84;5072133;28;20499;-75
2022/02/23 05:46:19;;;;;;;19.42;3.72;;;;;;;3.43;97.90;102559.16;5071476;28;20028;-75
2022/02/23 05:48:47;;;;;;;19.75;3.42;;;;;;;3.38;97.82;102566.34;5054311;28;20473;-76
2022/02/23 05:51:36;;;;;;;23.50;4.05;;;;;;;3.35;97.70;102564.69;5071373;28;20037;-76
2022/02/23 05:54:03;;;;;;;25.83;3.58;;;;;;;3.28;97.97;102561.38;5071846;28;20061;-75
2022/02/23 05:56:30;;;;;;;31.20;3.70;;;;;;;3.22;98.26;102561.56;5071128;28;20033;-76
2022/02/23 05:58:56;;;;;;;29.63;4.00;;;;;;;3.25;98.54;102563.25;5072088;28;20122;-76
2022/02/23 06:01:22;;;;;;;32.70;4.30;;;;;;;3.28;99.03;102560.53;5071519;28;20054;-75
2022/02/23 06:03:47;;;;;;;33.55;4.00;;;;;;;3.37;99.13;102569.88;5071873;28;20461;-75
2022/02/23 06:06:13;;;;;;;20.52;2.92;;;;;;;3.38;99.52;102569.00;5071410;28;20036;-76
2022/02/23 06:08:39;;;;;;;29.80;4.43;;;;;;;3.34;99.55;102568.22;5072108;28;20035;-75
2022/02/23 06:11:05;;;;;;;28.00;3.40;;;;;;;3.25;98.81;102568.50;5071462;28;20480;-75
2022/02/23 06:13:31;;;;;;;28.92;3.25;;;;;;;3.17;98.56;102569.63;5070705;28;20197;-75
2022/02/23 06:15:56;;;;;;;32.17;4.07;;;;;;;3.15;98.24;102571.44;5071802;28;20329;-74
2022/02/23 06:18:22;;;;;;;32.10;4.07;;;;;;;3.08;98.24;102566.44;5071107;28;20033;-74
2022/02/23 06:20:47;;;;;;;30.13;3.60;;;;;;;3.07;98.56;102572.59;5071671;28;20035;-75
2022/02/23 06:23:13;;;;;;;22.58;3.42;;;;;;;2.99;99.49;102565.78;5071261;28;20040;-78
2022/02/23 06:25:38;;;;;;;27.80;3.15;;;;;;;2.96;100.00;102571.16;5071283;28;20362;-75
2022/02/23 06:28:04;;;;;;;28.40;4.38;;;;;;;2.90;99.81;102570.50;5071437;28;20090;-75
2022/02/23 06:30:30;;;;;;;30.63;4.38;;;;;;;2.82;99.98;102570.69;5071044;28;20024;-74
2022/02/23 06:32:55;;;;;;;25.98;4.25;;;;;;;2.76;99.88;102573.53;5071592;28;20032;-74
2022/02/23 06:35:21;;;;;;;31.98;3.70;;;;;;;2.64;100.00;102573.00;5070722;28;20032;-75
2022/02/23 06:37:46;;;;;;;34.67;3.88;;;;;;;2.60;100.00;102570.50;5071628;28;20043;-77
2022/02/23 06:40:13;;;;;;;33.33;3.70;;;;;;;2.54;100.00;102579.41;5071348;28;20115;-75
2022/02/23 06:42:38;;;;;;;30.15;3.50;;;;;;;2.49;100.00;102581.31;5071301;28;20028;-75
2022/02/23 06:45:07;;;;;;;21.13;3.78;;;;;;;2.49;100.00;102585.72;5071263;28;20028;-74
2022/02/23 06:47:33;;;;;;;27.00;3.95;;;;;;;2.50;100.00;102585.66;5071039;28;20033;-77
2022/02/23 06:49:59;;;;;;;31.45;4.35;;;;;;;2.44;100.00;102581.44;5071598;28;20089;-75
2022/02/23 06:52:28;;;;;;;18.90;3.33;;;;;;;2.43;100.00;102585.00;5052780;28;20398;-75
2022/02/23 06:54:54;;;;;;;28.27;3.70;;;;;;;2.37;100.00;102585.13;5071088;28;20021;-76
2022/02/23 06:57:21;;;;;;;25.95;3.85;;;;;;;2.32;100.00;102580.94;5070669;28;20370;-77
2022/02/23 06:59:47;;;;;;;21.65;3.95;;;;;;;2.29;100.00;102572.22;5070515;28;20043;-75
2022/02/23 07:02:13;;;;;;;45.47;4.93;;;;;;;2.34;100.00;102572.09;5071633;28;20111;-79
2022/02/23 07:04:39;;;;;;;28.63;3.50;;;;;;;2.37;100.00;102573.78;5053063;28;20495;-75
2022/02/23 07:07:04;;;;;;;18.80;3.40;;;;;;;2.36;100.00;102575.56;5071639;28;20025;-77
2022/02/23 07:09:30;;;;;;;25.63;3.60;;;;;;;2.36;100.00;102572.94;5070745;28;20043;-77
2022/02/23 07:11:55;;;;;;;26.25;4.07;;;;;;;2.37;100.00;102573.78;5073833;28;20035;-77
2022/02/23 07:14:21;;;;;;;29.95;3.50;;;;;;;2.33;100.00;102574.75;5070908;28;20076;-80
2022/02/23 07:16:46;;;;;;;22.05;3.92;;;;;;;2.27;100.00;102578.44;5071443;28;20028;-76
2022/02/23 07:19:12;;;;;;;29.17;4.03;;;;;;;2.25;100.00;102580.22;5071096;28;20036;-76
2022/02/23 07:21:38;;;;;;;34.58;4.35;;;;;;;2.24;100.00;102578.50;5072920;28;20086;-78
2022/02/23 07:24:04;;;;;;;24.23;3.95;;;;;;;2.25;100.00;102581.09;5074526;28;20039;-77
2022/02/23 07:26:31;;;;;;;35.78;4.30;;;;;;;2.30;100.00;102581.00;5074340;28;20046;-76
2022/02/23 07:28:57;;;;;;;31.95;3.95;;;;;;;2.37;100.00;102585.13;5056148;28;20097;-78
2022/02/23 07:31:22;;;;;;;30.50;3.85;;;;;;;2.49;100.00;102589.19;5073457;28;20032;-74
2022/02/23 07:33:48;;;;;;;22.13;3.65;;;;;;;2.61;100.00;102583.59;5077445;28;20059;-79
2022/02/23 07:36:14;;;;;;;33.95;4.28;;;;;;;2.72;100.00;102592.94;5076220;28;20452;-77
2022/02/23 07:38:41;;;;;;;32.75;4.50;;;;;;;2.82;100.00;102584.72;5071571;28;20036;-76
2022/02/23 07:41:08;;;;;;;34.65;5.15;;;;;;;2.99;100.00;102581.56;5071165;28;20032;-79
2022/02/23 07:43:35;;;;;;;26.85;4.50;;;;;;;3.14;100.00;102598.66;5054147;28;20139;-78
2022/02/23 07:46:01;;;;;;;27.50;5.07;;;;;;;3.26;100.00;102592.13;5072986;28;20182;-77
2022/02/23 07:48:26;;;;;;;32.63;5.00;;;;;;;3.40;100.00;102594.31;5072873;28;20123;-77
2022/02/23 07:50:52;;;;;;;31.63;4.40;;;;;;;3.52;100.00;102586.06;5072503;28;20040;-77
2022/02/23 07:53:18;;;;;;;14.82;3.47;;;;;;;3.68;100.00;102593.44;5070994;28;20502;-78
2022/02/23 07:55:43;;;;;;;30.23;5.03;;;;;;;3.82;100.00;102593.81;5070729;28;20044;-79
2022/02/23 07:58:09;;;;;;;19.98;3.80;;;;;;;3.96;100.00;102592.50;5071901;28;20040;-78
2022/02/23 08:00:35;;;;;;;27.08;4.40;;;;;;;4.08;100.00;102589.44;5071660;28;20032;-80
2022/02/23 08:03:01;;;;;;;34.53;4.25;;;;;;;4.22;100.00;102591.56;5073431;28;20037;-78
2022/02/23 08:05:27;;;;;;;20.38;3.97;;;;;;;4.30;99.41;102594.78;5071052;28;20047;-79
2022/02/23 08:07:55;;;;;;;22.58;3.60;;;;;;;4.42;99.06;102604.03;5071406;28;20035;-80
2022/02/23 08:10:21;;;;;;;24.55;3.70;;;;;;;4.51;98.31;102602.81;5034565;28;20386;-78
2022/02/23 08:12:47;;;;;;;25.92;6.15;;;;;;;4.66;97.96;102598.75;5070466;28;20043;-81
2022/02/23 08:20:41;;;;;;;22.25;4.40;;;;;;;5.02;95.64;102587.72;5068816;28;20067;-78
2022/02/23 08:23:07;;;;;;;20.63;3.58;;;;;;;5.15;95.11;102590.72;5052965;28;20040;-80
2022/02/23 08:25:33;;;;;;;27.02;4.38;;;;;;;5.25;95.74;102582.38;5069711;28;20034;-78
2022/02/23 08:27:59;;;;;;;20.77;3.85;;;;;;;5.35;96.10;102588.16;5070518;28;20111;-80
2022/02/23 08:30:24;;;;;;;22.00;3.60;;;;;;;5.48;96.41;102589.38;5070032;28;20035;-77
2022/02/23 08:32:50;;;;;;;18.58;3.38;;;;;;;5.63;96.81;102582.59;5070403;28;20938;-79
2022/02/23 08:35:15;;;;;;;20.50;4.80;;;;;;;5.64;94.42;102588.72;5071032;28;20116;-79
2022/02/23 08:37:41;;;;;;;22.80;3.90;;;;;;;5.73;92.02;102588.34;5070032;28;20461;-81
2022/02/23 08:40:07;;;;;;;19.10;3.90;;;;;;;5.80;91.82;102581.88;5070805;28;20041;-75
2022/02/23 08:42:32;;;;;;;25.00;4.65;;;;;;;6.10;96.73;102580.66;5069745;28;20041;-77
2022/02/23 08:44:58;;;;;;;19.58;3.78;;;;;;;6.10;94.47;102584.13;5070652;28;20325;-77
2022/02/23 08:47:25;;;;;;;14.75;3.28;;;;;;;6.15;91.30;102579.53;5070390;28;20063;-77
2022/02/23 08:49:52;;;;;;;28.73;4.32;;;;;;;6.31;91.16;102589.41;5069599;28;20503;-77
2022/02/23 08:52:17;;;;;;;20.95;3.28;;;;;;;6.50;90.92;102581.50;5069580;28;20086;-77
2022/02/23 08:54:43;;;;;;;19.27;3.78;;;;;;;6.52;87.15;102583.16;5069107;28;20036;-74
2022/02/23 08:57:09;;;;;;;16.08;3.47;;;;;;;6.67;87.35;102589.53;5069993;28;20101;-74
2022/02/23 08:59:35;;;;;;;16.67;3.83;;;;;;;6.87;85.41;102582.47;5069622;28;20326;-81
2022/02/23 09:02:00;;;;;;;22.83;3.50;;;;;;;6.93;83.79;102586.63;5069900;28;20418;-78
2022/02/23 09:04:26;;;;;;;21.58;3.63;;;;;;;6.96;82.88;102565.28;5069749;28;20132;-79
2022/02/23 09:06:52;;;;;;;18.98;3.53;;;;;;;7.30;82.42;102576.88;5068933;28;20420;-77
2022/02/23 09:09:18;;;;;;;20.98;4.03;;;;;;;7.70;81.21;102589.00;5070322;28;20734;-76
2022/02/23 09:11:44;;;;;;;18.38;3.78;;;;;;;8.15;77.87;102586.72;5069257;28;20052;-77
2022/02/23 09:14:11;;;;;;;20.10;3.78;;;;;;;8.82;74.15;102584.03;5069982;28;20049;-78
2022/02/23 09:16:37;;;;;;;18.25;3.67;;;;;;;9.46;70.99;102586.63;5069051;28;20136;-79
2022/02/23 09:19:03;;;;;;;20.10;4.03;;;;;;;9.61;70.59;102582.22;5069390;28;20068;-76
2022/02/23 09:21:28;;;;;;;21.80;3.83;;;;;;;10.03;68.49;102586.81;5069463;28;20071;-77
2022/02/23 09:23:53;;;;;;;18.55;4.20;;;;;;;11.47;62.20;102575.94;5068723;28;20076;-78
2022/02/23 09:26:19;;;;;;;14.88;3.83;;;;;;;12.74;57.23;102579.72;5069190;28;20502;-79
2022/02/23 09:28:46;;;;;;;17.23;3.55;;;;;;;13.17;56.47;102584.59;5068464;28;20039;-76
2022/02/23 09:31:13;;;;;;;16.50;4.07;;;;;;;13.59;54.29;102595.75;5069502;28;20033;-78
2022/02/23 09:33:40;;;;;;;24.38;4.30;;;;;;;14.53;52.46;102592.97;5051128;28;20033;-77
2022/02/23 09:36:07;;;;;;;18.10;4.32;;;;;;;15.38;49.91;102594.19;5034630;28;20040;-77
2022/02/23 09:38:32;;;;;;;17.95;4.35;;;;;;;15.47;49.06;102594.25;5069055;28;20036;-77
2022/02/23 09:41:00;;;;;;;18.48;4.13;;;;;;;15.81;47.93;102586.06;5068114;28;20029;-77
2022/02/23 09:43:26;;;;;;;22.50;4.88;;;;;;;16.54;46.27;102587.81;5068610;28;20077;-77
2022/02/23 09:45:54;;;;;;;18.92;4.85;;;;;;;15.99;46.71;102591.69;5068561;28;20032;-77
2022/02/23 09:48:31;;;;;;;17.55;4.40;;;;;;;16.55;45.03;102594.91;5068870;28;20465;-77
2022/02/23 09:50:58;;;;;;;22.85;4.50;;;;;;;16.29;46.41;102586.47;5068297;28;20068;-77
2022/02/23 09:53:24;;;;;;;17.25;4.75;;;;;;;16.19;46.47;102597.16;5068315;28;20116;-77
2022/02/23 09:55:52;;;;;;;18.83;4.93;;;;;;;17.03;44.32;102583.47;5068606;28;20135;-77
2022/02/23 09:58:20;;;;;;;22.50;5.85;;;;;;;16.67;45.43;102588.44;5068789;28;20039;-77
2022/02/23 10:00:46;;;;;;;18.13;5.38;;;;;;;17.18;43.86;102591.13;5068179;28;20037;-77
2022/02/23 10:03:12;;;;;;;22.42;5.75;;;;;;;16.85;44.64;102588.63;5068330;28;20404;-77
2022/02/23 10:05:43;;;;;;;19.48;5.40;;;;;;;16.37;46.16;102586.63;5068393;28;20024;-77
2022/02/23 10:08:09;;;;;;;20.90;5.05;;;;;;;16.67;45.72;102583.06;5050973;28;20728;-77
2022/02/23 10:10:40;;;;;;;18.65;5.30;;;;;;;16.35;45.53;102581.41;5068595;28;20476;-78
2022/02/23 10:13:07;;;;;;;22.58;5.18;;;;;;;17.13;43.47;102578.09;5067831;28;20038;-77
2022/02/23 10:15:43;;;;;;;21.23;4.85;;;;;;;16.34;46.06;102584.22;5068514;28;20491;-77
2022/02/23 10:18:34;;;;;;;18.10;5.13;;;;;;;17.39;42.73;102591.00;5068069;28;20063;-78
2022/02/23 10:20:59;;;;;;;20.45;4.55;;;;;;;17.23;42.47;102591.56;5068099;28;20119;-80
2022/02/23 10:23:28;;;;;;;20.67;4.38;;;;;;;16.24;45.21;102576.09;5068334;28;20128;-79
2022/02/23 10:26:00;;;;;;;20.33;4.68;;;;;;;16.46;44.82;102588.50;5067507;28;20147;-77
2022/02/23 10:28:27;;;;;;;18.98;4.90;;;;;;;15.89;44.64;102590.75;5067826;28;20024;-76
2022/02/23 10:30:57;;;;;;;18.05;4.38;;;;;;;15.28;46.71;102588.72;5067798;28;20035;-75
2022/02/23 10:33:30;;;;;;;18.27;4.80;;;;;;;16.82;43.79;102578.16;5068157;28;20068;-76
2022/02/23 10:36:16;;;;;;;16.85;3.67;;;;;;;17.85;41.23;102588.53;5067656;28;20025;-76
2022/02/23 10:38:43;;;;;;;17.90;4.20;;;;;;;17.26;41.67;102575.97;5068303;28;20032;-76
2022/02/23 10:41:22;;;;;;;14.35;4.05;;;;;;;16.78;41.74;102590.19;5067971;28;20032;-77
2022/02/23 10:43:48;;;;;;;13.10;4.05;;;;;;;16.04;44.04;102580.53;5068622;28;20060;-77
2022/02/23 10:46:16;;;;;;;17.13;4.03;;;;;;;15.82;44.94;102582.41;5068910;28;20129;-77
2022/02/23 10:48:45;;;;;;;16.23;4.15;;;;;;;16.77;42.42;102571.50;5050851;28;20032;-77
2022/02/23 10:51:15;;;;;;;15.38;4.68;;;;;;;17.54;41.75;102592.28;5065611;28;20392;-79
2022/02/23 10:53:43;;;;;;;10.07;2.97;;;;;;;17.62;39.64;102584.31;5068379;28;20032;-79
2022/02/23 10:56:27;;;;;;;14.75;3.40;;;;;;;17.29;40.10;102582.94;5071604;28;20117;-78
2022/02/23 10:59:10;;;;;;;12.57;3.75;;;;;;;16.13;42.00;102570.84;5074685;28;20111;-78
2022/02/23 11:01:37;;;;;;;19.63;4.32;;;;;;;15.61;43.36;102573.44;5074998;28;20039;-78
2022/02/23 11:04:04;;;;;;;15.77;3.67;;;;;;;14.88;45.32;102571.38;5074174;28;20064;-78
2022/02/23 11:06:33;;;;;;;13.10;3.70;;;;;;;14.16;46.75;102572.63;5074862;28;20029;-79
2022/02/23 11:09:00;;;;;;;17.50;3.80;;;;;;;13.95;47.15;102571.66;5056400;28;20025;-76
2022/02/23 11:11:28;;;;;;;17.42;3.78;;;;;;;13.54;48.78;102569.34;5074720;28;20037;-78
2022/02/23 11:14:01;;;;;;;18.08;3.92;;;;;;;13.03;50.37;102567.75;5073664;28;20056;-80
2022/02/23 11:16:28;;;;;;;13.75;3.80;;;;;;;12.82;51.48;102566.66;5074564;28;20029;-80
2022/02/23 11:19:00;;;;;;;14.73;3.90;;;;;;;12.26;52.81;102578.63;5074284;28;20056;-78
2022/02/23 11:21:29;;;;;;;15.77;3.65;;;;;;;11.97;53.28;102565.50;5074448;28;20465;-79
2022/02/23 11:24:00;;;;;;;13.63;3.33;;;;;;;11.83;54.09;102558.41;5056026;28;20036;-79